KMTH/MTH METAR and TAF weather

Enter ICAO airport designator
Station Type Date Time Source
KMTH METAR 2019/10/23 01:53 UTC NOAA

KMTH 230153Z AUTO 01003KT 10SM CLR 28/24 A3001 RMK AO2 SLP160 T02780239


Station Type Date Time Source
KMTH Decoded METAR 2019/10/23 01:53 UTC NOAA

MARATHON AIRPORT, FL, United States (KMTH) 24-44N 81-03W 2M
Oct 22, 2019 - 09:53 PM EDT / 2019.10.23 0153 UTC
Wind: from the N (010 degrees) at 3 MPH (3 KT):0
Visibility: 10 mile(s):0
Sky conditions: clear
Temperature: 82.0 F (27.8 C)
Dew Point: 75.0 F (23.9 C)
Relative Humidity: 79%
Pressure (altimeter): 30.01 in. Hg (1016 hPa)
ob: KMTH 230153Z AUTO 01003KT 10SM CLR 28/24 A3001 RMK AO2 SLP160 T02780239
cycle: 2

Station Type Date Time Source
KMTH TAF 2019/10/22 18:40 UTC NOAA

TAF KMTH 221738Z 2218/2318 13005KT P6SM FEW025
FM230200 04006KT P6SM SCT020

Example: see airport list